createdAt,value
2023-05-10T00:00:06.350Z,245.60
2023-05-10T00:01:06.388Z,244.81
2023-05-10T00:02:06.487Z,245.82
2023-05-10T00:03:06.679Z,245.50
2023-05-10T00:04:06.569Z,246.10
2023-05-10T00:05:06.640Z,245.83
2023-05-10T00:06:06.687Z,245.26
2023-05-10T00:07:06.813Z,245.72
2023-05-10T00:08:06.888Z,245.61
2023-05-10T00:09:06.867Z,245.55
2023-05-10T00:10:06.950Z,245.46
2023-05-10T00:11:07.059Z,245.17
2023-05-10T00:12:07.091Z,245.64
2023-05-10T00:13:07.177Z,245.38
2023-05-10T00:14:07.205Z,246.01
2023-05-10T00:15:07.265Z,245.82
2023-05-10T00:16:07.369Z,245.89
2023-05-10T00:17:07.329Z,245.74
2023-05-10T00:18:07.547Z,245.99
2023-05-10T00:19:07.533Z,245.68
2023-05-10T00:20:07.564Z,245.70
2023-05-10T00:21:07.667Z,245.95
2023-05-10T00:22:07.712Z,245.88
2023-05-10T00:23:07.719Z,245.57
2023-05-10T00:24:07.795Z,246.00
2023-05-10T00:25:07.875Z,246.74
2023-05-10T00:26:07.990Z,245.86
2023-05-10T00:27:08.011Z,246.01
2023-05-10T00:28:08.069Z,245.54
2023-05-10T00:29:08.251Z,245.14
2023-05-10T00:30:08.199Z,246.10
2023-05-10T00:31:08.238Z,246.28
2023-05-10T00:32:08.421Z,245.86
2023-05-10T00:33:08.446Z,246.40
2023-05-10T00:34:08.459Z,246.03
2023-05-10T00:35:08.489Z,245.91
2023-05-10T00:36:08.550Z,246.66
2023-05-10T00:37:08.614Z,245.76
2023-05-10T00:38:08.691Z,246.17
2023-05-10T00:39:08.725Z,246.07
2023-05-10T00:40:08.797Z,246.46
2023-05-10T00:41:08.882Z,245.85
2023-05-10T00:42:08.940Z,245.70
2023-05-10T00:43:09.028Z,246.02
2023-05-10T00:44:09.025Z,245.27
2023-05-10T00:45:09.120Z,246.16
2023-05-10T00:46:09.217Z,246.12
2023-05-10T00:47:09.234Z,245.88
2023-05-10T00:48:09.302Z,246.34
2023-05-10T00:49:09.336Z,246.30
2023-05-10T00:50:09.405Z,245.96
2023-05-10T00:51:09.491Z,246.74
2023-05-10T00:52:09.519Z,246.27
2023-05-10T00:53:09.606Z,246.20
2023-05-10T00:54:09.662Z,245.98
2023-05-10T00:55:09.854Z,246.20
2023-05-10T00:56:09.839Z,246.17
2023-05-10T00:57:09.909Z,246.25
2023-05-10T00:58:09.950Z,245.97
2023-05-10T00:59:09.983Z,246.44
2023-05-10T01:00:10.076Z,246.23
2023-05-10T01:01:10.158Z,245.80
2023-05-10T01:02:10.206Z,246.83
2023-05-10T01:03:10.327Z,246.11
2023-05-10T01:04:10.312Z,245.98
2023-05-10T01:05:10.401Z,246.54
2023-05-10T01:06:10.422Z,247.00
2023-05-10T01:07:10.539Z,246.65
2023-05-10T01:08:10.602Z,246.76
2023-05-10T01:09:10.602Z,245.86
2023-05-10T01:10:10.705Z,245.82
2023-05-10T01:11:10.761Z,246.33
2023-05-10T01:12:10.842Z,246.62
2023-05-10T01:13:10.971Z,246.29
2023-05-10T01:14:10.887Z,246.63
2023-05-10T01:15:10.994Z,246.44
2023-05-10T01:16:11.052Z,246.74
2023-05-10T01:17:11.060Z,245.92
2023-05-10T01:18:11.110Z,246.90
2023-05-10T01:19:11.232Z,246.61
2023-05-10T01:20:11.251Z,247.18
2023-05-10T01:21:11.298Z,246.13
2023-05-10T01:22:11.337Z,245.87
2023-05-10T01:23:11.406Z,246.96
2023-05-10T01:24:11.497Z,247.11
2023-05-10T01:25:11.532Z,246.53
2023-05-10T01:26:11.582Z,246.45
2023-05-10T01:27:11.685Z,247.14
2023-05-10T01:28:11.753Z,247.14
2023-05-10T01:29:11.783Z,247.08
2023-05-10T01:30:15.830Z,246.89
2023-05-10T01:31:12.932Z,246.95
2023-05-10T01:32:11.849Z,246.99
2023-05-10T01:33:11.837Z,247.10
2023-05-10T01:34:11.805Z,247.36
2023-05-10T01:35:11.842Z,246.77
2023-05-10T01:36:11.800Z,247.09
2023-05-10T01:37:11.799Z,246.80
2023-05-10T01:38:11.794Z,247.35
2023-05-10T01:39:11.875Z,247.36
2023-05-10T01:40:11.889Z,247.21
2023-05-10T01:41:11.952Z,246.90
2023-05-10T01:42:12.038Z,247.47
2023-05-10T01:43:12.108Z,246.96
2023-05-10T01:44:12.165Z,246.73
2023-05-10T01:45:12.250Z,246.94
2023-05-10T01:46:12.320Z,247.17
2023-05-10T01:47:12.343Z,247.18
2023-05-10T01:48:12.427Z,247.26
2023-05-10T01:49:12.460Z,247.08
2023-05-10T01:50:12.477Z,246.79
2023-05-10T01:51:12.523Z,247.31
2023-05-10T01:52:12.616Z,247.69
2023-05-10T01:53:12.678Z,246.44
2023-05-10T01:54:12.715Z,247.34
2023-05-10T01:55:12.827Z,247.02
2023-05-10T01:56:12.810Z,247.20
2023-05-10T01:57:12.917Z,247.69
2023-05-10T01:58:12.965Z,247.71
2023-05-10T01:59:13.030Z,247.11
2023-05-10T02:00:13.052Z,247.79
2023-05-10T02:01:13.260Z,246.99
2023-05-10T02:02:13.334Z,247.39
2023-05-10T02:03:13.376Z,247.27
2023-05-10T02:04:13.333Z,247.70
2023-05-10T02:05:13.331Z,247.46
2023-05-10T02:06:13.383Z,247.09
2023-05-10T02:07:13.458Z,247.11
2023-05-10T02:08:13.538Z,247.50
2023-05-10T02:09:13.564Z,248.10
2023-05-10T02:10:13.812Z,247.11
2023-05-10T02:11:13.666Z,247.90
2023-05-10T02:12:13.748Z,246.98
2023-05-10T02:13:13.914Z,248.02
2023-05-10T02:14:13.850Z,247.43
2023-05-10T02:15:13.846Z,246.86
2023-05-10T02:16:14.021Z,247.95
2023-05-10T02:17:13.976Z,247.35
2023-05-10T02:18:14.018Z,247.15
2023-05-10T02:19:14.050Z,247.38
2023-05-10T02:20:14.291Z,247.52
2023-05-10T02:21:14.218Z,247.14
2023-05-10T02:22:14.249Z,247.14
2023-05-10T02:23:14.327Z,247.90
2023-05-10T02:24:14.432Z,247.34
2023-05-10T02:25:14.401Z,247.36
2023-05-10T02:26:14.448Z,247.37
2023-05-10T02:27:14.520Z,247.03
2023-05-10T02:28:14.599Z,247.24
2023-05-10T02:29:14.630Z,247.32
2023-05-10T02:30:14.842Z,247.40
2023-05-10T02:31:14.734Z,248.19
2023-05-10T02:32:14.818Z,248.12
2023-05-10T02:33:14.911Z,247.43
2023-05-10T02:34:15.123Z,247.20
2023-05-10T02:35:15.017Z,247.71
2023-05-10T02:36:15.053Z,247.10
2023-05-10T02:37:15.147Z,247.41
2023-05-10T02:38:15.198Z,247.00
2023-05-10T02:39:15.242Z,247.73
2023-05-10T02:40:15.682Z,247.35
2023-05-10T02:41:15.382Z,247.11
2023-05-10T02:42:15.402Z,247.14
2023-05-10T02:43:15.479Z,247.41
2023-05-10T02:44:15.523Z,247.61
2023-05-10T02:45:15.599Z,247.37
2023-05-10T02:46:15.698Z,247.04
2023-05-10T02:47:15.723Z,248.07
2023-05-10T02:48:15.764Z,247.52
2023-05-10T02:49:15.772Z,246.96
2023-05-10T02:50:16.037Z,247.18
2023-05-10T02:51:15.874Z,247.60
2023-05-10T02:52:15.898Z,247.89
2023-05-10T02:53:16.017Z,247.18
2023-05-10T02:54:15.972Z,247.38
2023-05-10T02:55:16.013Z,247.40
2023-05-10T02:56:16.088Z,247.38
2023-05-10T02:57:16.088Z,247.69
2023-05-10T02:58:16.103Z,247.48
2023-05-10T02:59:16.165Z,246.90
2023-05-10T03:00:16.486Z,248.15
2023-05-10T03:01:16.320Z,246.96
2023-05-10T03:02:16.289Z,247.57
2023-05-10T03:03:16.387Z,247.74
2023-05-10T03:04:16.465Z,246.50
2023-05-10T03:05:16.425Z,247.63
2023-05-10T03:06:16.454Z,247.63
2023-05-10T03:07:16.495Z,247.81
2023-05-10T03:08:16.527Z,247.21
2023-05-10T03:09:16.695Z,247.59
2023-05-10T03:10:16.985Z,247.61
2023-05-10T03:11:16.663Z,247.59
2023-05-10T03:12:16.721Z,247.56
2023-05-10T03:13:16.814Z,246.91
2023-05-10T03:14:16.774Z,247.54
2023-05-10T03:15:16.784Z,248.28
2023-05-10T03:16:16.862Z,247.55
2023-05-10T03:17:16.877Z,248.10
2023-05-10T03:18:16.916Z,247.73
2023-05-10T03:19:16.962Z,247.95
2023-05-10T03:20:17.346Z,247.49
2023-05-10T03:21:16.999Z,247.46
2023-05-10T03:22:17.086Z,247.45
2023-05-10T03:23:17.155Z,248.36
2023-05-10T03:24:17.201Z,247.37
2023-05-10T03:25:17.209Z,248.15
2023-05-10T03:26:17.224Z,247.91
2023-05-10T03:27:17.335Z,247.92
2023-05-10T03:28:17.338Z,247.82
2023-05-10T03:29:17.334Z,248.00
2023-05-10T03:30:17.750Z,248.51
2023-05-10T03:31:17.439Z,247.72
2023-05-10T03:32:17.428Z,248.37
2023-05-10T03:33:17.460Z,247.59
2023-05-10T03:34:17.511Z,248.03
2023-05-10T03:35:17.589Z,247.84
2023-05-10T03:36:17.599Z,247.40
2023-05-10T03:37:17.636Z,247.27
2023-05-10T03:38:17.692Z,247.66
2023-05-10T03:39:17.708Z,246.98
2023-05-10T03:40:18.011Z,247.66
2023-05-10T03:41:17.787Z,247.45
2023-05-10T03:42:17.842Z,247.70
2023-05-10T03:43:17.841Z,247.71
2023-05-10T03:44:17.921Z,247.20
2023-05-10T03:45:17.920Z,247.76
2023-05-10T03:46:18.036Z,247.56
2023-05-10T03:47:17.995Z,248.24
2023-05-10T03:48:18.042Z,247.45
2023-05-10T03:49:18.092Z,247.75
2023-05-10T03:50:18.347Z,247.63
2023-05-10T03:51:18.179Z,246.97
2023-05-10T03:52:18.243Z,248.29
2023-05-10T03:53:18.277Z,247.81
2023-05-10T03:54:18.324Z,248.28
2023-05-10T03:55:18.326Z,248.20
2023-05-10T03:56:18.403Z,249.02
2023-05-10T03:57:18.385Z,248.17
2023-05-10T03:58:18.409Z,247.85
2023-05-10T03:59:18.461Z,247.23
2023-05-10T04:00:18.728Z,248.13
2023-05-10T04:01:18.581Z,248.39
2023-05-10T04:02:18.591Z,247.85
2023-05-10T04:03:18.751Z,247.65
2023-05-10T04:04:18.710Z,243.83
2023-05-10T04:05:18.720Z,241.42
2023-05-10T04:06:18.872Z,239.30
2023-05-10T04:07:18.781Z,237.64
2023-05-10T04:08:18.786Z,231.38
2023-05-10T04:09:18.840Z,229.61
2023-05-10T04:10:19.166Z,227.02
2023-05-10T04:11:18.905Z,225.73
2023-05-10T04:12:18.969Z,225.69
2023-05-10T04:13:19.031Z,225.90
2023-05-10T04:14:19.040Z,226.21
2023-05-10T04:15:19.088Z,226.68
2023-05-10T04:16:19.136Z,227.66
2023-05-10T04:17:19.209Z,229.11
2023-05-10T04:18:19.158Z,229.89
2023-05-10T04:19:19.218Z,231.06
2023-05-10T04:20:19.371Z,231.55
2023-05-10T04:21:19.304Z,231.97
2023-05-10T04:22:19.341Z,232.10
2023-05-10T04:23:19.406Z,233.26
2023-05-10T04:24:19.450Z,233.09
2023-05-10T04:25:19.522Z,234.21
2023-05-10T04:26:19.650Z,234.26
2023-05-10T04:27:19.634Z,234.10
2023-05-10T04:28:19.680Z,233.53
2023-05-10T04:29:19.759Z,231.11
2023-05-10T04:30:19.720Z,230.60
2023-05-10T04:31:19.910Z,232.75
2023-05-10T04:32:19.826Z,233.90
2023-05-10T04:33:19.841Z,235.20
2023-05-10T04:34:19.834Z,235.38
2023-05-10T04:35:19.912Z,236.11
2023-05-10T04:36:19.894Z,236.77
2023-05-10T04:37:19.911Z,236.10
2023-05-10T04:38:19.918Z,235.90
2023-05-10T04:39:19.934Z,235.59
2023-05-10T04:40:19.930Z,235.75
2023-05-10T04:41:19.928Z,236.68
2023-05-10T04:42:19.997Z,237.01
2023-05-10T04:43:19.995Z,236.92
2023-05-10T04:44:19.974Z,238.13
2023-05-10T04:45:20.006Z,237.87
2023-05-10T04:46:20.039Z,238.63
2023-05-10T04:47:20.064Z,239.15
2023-05-10T04:48:20.030Z,240.19
2023-05-10T04:49:20.031Z,241.26
2023-05-10T04:50:20.045Z,240.59
2023-05-10T04:51:20.050Z,241.67
2023-05-10T04:52:20.018Z,241.65
2023-05-10T04:53:20.046Z,243.35
2023-05-10T04:54:20.069Z,243.05
2023-05-10T04:55:20.077Z,243.66
2023-05-10T04:56:20.083Z,243.43
2023-05-10T04:57:20.036Z,243.27
2023-05-10T04:58:20.057Z,242.02
2023-05-10T04:59:20.061Z,242.88
2023-05-10T05:00:20.060Z,242.79
2023-05-10T05:01:20.146Z,243.75
2023-05-10T05:02:20.117Z,243.71
2023-05-10T05:03:20.126Z,243.58
2023-05-10T05:04:20.095Z,243.90
2023-05-10T05:05:20.100Z,244.46
2023-05-10T05:06:20.153Z,248.21
2023-05-10T05:07:20.217Z,248.49
2023-05-10T05:08:20.162Z,249.04
2023-05-10T05:09:20.230Z,249.10
2023-05-10T05:10:20.358Z,247.63
2023-05-10T05:11:20.296Z,249.15
2023-05-10T05:12:20.326Z,249.53
2023-05-10T05:13:20.373Z,247.55
2023-05-10T05:14:20.370Z,247.05
2023-05-10T05:15:20.423Z,248.29
2023-05-10T05:16:20.480Z,248.83
2023-05-10T05:17:20.492Z,248.18
2023-05-10T05:18:20.534Z,248.12
2023-05-10T05:19:20.549Z,247.85
2023-05-10T05:20:20.611Z,249.89
2023-05-10T05:21:20.622Z,249.30
2023-05-10T05:22:20.658Z,248.35
2023-05-10T05:23:20.672Z,248.38
2023-05-10T05:24:20.743Z,247.28
2023-05-10T05:25:20.781Z,246.95
2023-05-10T05:26:20.834Z,247.59
2023-05-10T05:27:20.902Z,246.17
2023-05-10T05:28:20.929Z,246.21
2023-05-10T05:29:21.043Z,244.41
2023-05-10T05:30:21.131Z,246.41
2023-05-10T05:31:21.160Z,248.36
2023-05-10T05:32:21.186Z,250.00
2023-05-10T05:33:21.214Z,250.00
2023-05-10T05:34:21.226Z,250.00
2023-05-10T05:35:21.244Z,249.27
2023-05-10T05:36:21.337Z,248.75
2023-05-10T05:37:21.389Z,246.62
2023-05-10T05:38:21.451Z,244.61
2023-05-10T05:39:21.420Z,242.08
2023-05-10T05:40:21.515Z,238.95
2023-05-10T05:41:21.516Z,239.77
2023-05-10T05:42:21.575Z,236.67
2023-05-10T05:43:21.591Z,238.13
2023-05-10T05:44:21.630Z,232.03
2023-05-10T05:45:21.683Z,229.09
2023-05-10T05:46:21.738Z,228.87
2023-05-10T05:47:21.834Z,228.75
2023-05-10T05:48:21.774Z,237.20
2023-05-10T05:49:21.834Z,246.16
2023-05-10T05:50:21.810Z,244.75
2023-05-10T05:51:21.826Z,242.63
2023-05-10T05:52:21.871Z,238.93
2023-05-10T05:53:21.941Z,233.72
2023-05-10T05:54:21.877Z,231.65
2023-05-10T05:55:21.922Z,224.84
2023-05-10T05:56:21.932Z,225.32
2023-05-10T05:57:21.944Z,221.79
2023-05-10T05:58:21.933Z,220.47
2023-05-10T05:59:21.910Z,219.75
2023-05-10T06:00:21.963Z,216.09
2023-05-10T06:01:22.377Z,218.82
2023-05-10T06:02:22.024Z,211.83
2023-05-10T06:03:22.047Z,213.37
2023-05-10T06:04:22.089Z,207.17
2023-05-10T06:05:21.953Z,215.26
2023-05-10T06:06:22.372Z,221.04
2023-05-10T06:07:21.925Z,214.47
2023-05-10T06:08:21.927Z,213.99
2023-05-10T06:09:22.428Z,211.65
2023-05-10T06:10:21.949Z,211.48
2023-05-10T06:11:22.453Z,209.00
2023-05-10T06:12:21.887Z,205.76
2023-05-10T06:13:21.967Z,203.99
2023-05-10T06:14:21.937Z,207.99
2023-05-10T06:15:21.941Z,207.68
2023-05-10T06:16:21.950Z,209.09
2023-05-10T06:17:21.925Z,209.73
2023-05-10T06:18:21.928Z,208.75
2023-05-10T06:19:21.929Z,209.31
2023-05-10T06:20:21.945Z,210.18
2023-05-10T06:21:21.913Z,210.76
2023-05-10T06:22:22.056Z,212.17
2023-05-10T06:23:22.006Z,211.56
2023-05-10T06:24:22.024Z,212.18
2023-05-10T06:25:22.055Z,214.22
2023-05-10T06:26:22.145Z,213.94
2023-05-10T06:27:22.144Z,213.84
2023-05-10T06:28:22.342Z,213.95
2023-05-10T06:29:23.225Z,215.97
2023-05-10T06:30:22.262Z,215.93
2023-05-10T06:31:22.356Z,216.03
2023-05-10T06:32:22.393Z,217.70
2023-05-10T06:33:22.414Z,224.14
2023-05-10T06:34:22.502Z,224.04
2023-05-10T06:35:22.527Z,226.72
2023-05-10T06:36:22.558Z,235.88
2023-05-10T06:37:22.590Z,241.31
2023-05-10T06:38:22.572Z,249.15
2023-05-10T06:39:22.924Z,249.90
2023-05-10T06:40:22.589Z,247.08
2023-05-10T06:41:24.616Z,241.50
2023-05-10T06:42:22.552Z,228.92
2023-05-10T06:43:22.575Z,227.34
2023-05-10T06:44:22.572Z,227.99
2023-05-10T06:45:22.571Z,231.98
2023-05-10T06:46:22.836Z,232.38
2023-05-10T06:47:22.582Z,230.86
2023-05-10T06:48:22.706Z,230.67
2023-05-10T06:49:22.866Z,227.07
2023-05-10T06:50:22.605Z,226.75
2023-05-10T06:51:22.673Z,226.30
2023-05-10T06:52:22.619Z,227.46
2023-05-10T06:53:22.666Z,228.82
2023-05-10T06:54:22.700Z,228.31
2023-05-10T06:55:22.748Z,229.70
2023-05-10T06:56:22.871Z,229.14
2023-05-10T06:57:31.097Z,229.83
2023-05-10T06:58:23.884Z,229.87
2023-05-10T06:59:22.885Z,225.59
2023-05-10T07:00:22.998Z,222.60
2023-05-10T07:01:23.039Z,223.31
2023-05-10T07:02:22.993Z,223.68
2023-05-10T07:03:23.447Z,223.02
2023-05-10T07:04:22.914Z,223.34
2023-05-10T07:05:22.984Z,222.79
2023-05-10T07:06:32.989Z,223.72
2023-05-10T07:07:23.789Z,223.85
2023-05-10T07:08:22.781Z,224.64
2023-05-10T07:09:22.879Z,225.33
2023-05-10T07:10:22.896Z,225.64
2023-05-10T07:11:22.781Z,228.17
2023-05-10T07:12:22.809Z,229.94
2023-05-10T07:13:22.865Z,234.07
2023-05-10T07:14:22.794Z,236.13
2023-05-10T07:15:22.894Z,237.74
2023-05-10T07:16:23.040Z,238.62
2023-05-10T07:17:23.030Z,238.79
2023-05-10T07:18:23.104Z,238.10
2023-05-10T07:19:23.050Z,238.16
2023-05-10T07:20:23.176Z,239.25
2023-05-10T07:21:23.195Z,241.94
2023-05-10T07:22:23.398Z,242.74
2023-05-10T07:23:23.332Z,245.57
2023-05-10T07:24:23.363Z,244.19
2023-05-10T07:25:23.470Z,244.18
2023-05-10T07:26:23.478Z,246.30
2023-05-10T07:27:23.552Z,246.15
2023-05-10T07:28:23.696Z,246.29
2023-05-10T07:29:23.640Z,249.02
2023-05-10T07:30:23.791Z,248.68
2023-05-10T07:31:23.734Z,250.49
2023-05-10T07:32:23.952Z,249.84
2023-05-10T07:33:23.965Z,249.65
2023-05-10T07:34:23.997Z,249.97
2023-05-10T07:35:24.964Z,248.72
2023-05-10T07:36:24.049Z,245.88
2023-05-10T07:37:24.049Z,244.80
2023-05-10T07:38:24.103Z,243.52
2023-05-10T07:39:27.949Z,243.35
2023-05-10T07:40:24.081Z,243.44
2023-05-10T07:41:24.435Z,243.86
2023-05-10T07:42:24.031Z,243.19
2023-05-10T07:43:24.035Z,244.62
2023-05-10T07:44:24.053Z,243.67
2023-05-10T07:45:24.054Z,245.65
2023-05-10T07:46:24.082Z,242.80
2023-05-10T07:47:24.075Z,240.04
2023-05-10T07:48:23.982Z,242.99
2023-05-10T07:49:24.089Z,239.83
2023-05-10T07:50:23.996Z,239.65
2023-05-10T07:51:23.995Z,237.06
2023-05-10T07:52:24.016Z,239.29
2023-05-10T07:53:23.947Z,238.04
2023-05-10T07:54:23.982Z,237.35
2023-05-10T07:55:24.940Z,235.59
2023-05-10T07:56:23.986Z,234.31
2023-05-10T07:57:24.027Z,233.99
2023-05-10T07:58:24.056Z,237.70
2023-05-10T07:59:24.150Z,240.11
2023-05-10T08:00:24.214Z,245.50
2023-05-10T08:01:24.383Z,247.35
2023-05-10T08:02:24.273Z,249.58
2023-05-10T08:03:24.407Z,250.00
2023-05-10T08:04:24.415Z,247.05
2023-05-10T08:05:24.499Z,247.62
2023-05-10T08:06:24.505Z,249.77
2023-05-10T08:07:24.729Z,249.38
2023-05-10T08:08:24.625Z,248.43
2023-05-10T08:09:24.892Z,248.08
2023-05-10T08:10:24.786Z,248.98
2023-05-10T08:11:24.792Z,249.27
2023-05-10T08:12:24.898Z,249.68
2023-05-10T08:13:25.488Z,250.00
2023-05-10T08:14:24.968Z,249.78
2023-05-10T08:15:25.100Z,249.79
2023-05-10T08:16:25.278Z,250.00
2023-05-10T08:17:25.181Z,249.87
2023-05-10T08:18:25.434Z,248.54
2023-05-10T08:19:25.310Z,247.58
2023-05-10T08:20:25.375Z,245.60
2023-05-10T08:21:25.431Z,244.71
2023-05-10T08:22:25.489Z,241.76
2023-05-10T08:23:25.537Z,238.61
2023-05-10T08:24:25.609Z,239.57
2023-05-10T08:25:25.658Z,239.85
2023-05-10T08:26:25.705Z,244.34
2023-05-10T08:27:25.834Z,249.90
2023-05-10T08:28:25.891Z,249.72
2023-05-10T08:29:26.808Z,247.69
2023-05-10T08:30:26.102Z,247.13
2023-05-10T08:31:26.242Z,245.79
2023-05-10T08:32:26.272Z,243.22
2023-05-10T08:33:26.329Z,237.91
2023-05-10T08:34:26.322Z,231.47
2023-05-10T08:35:26.343Z,229.24
2023-05-10T08:36:26.290Z,229.68
2023-05-10T08:37:26.243Z,229.99
2023-05-10T08:38:26.260Z,234.60
2023-05-10T08:39:30.460Z,233.34
2023-05-10T08:40:26.293Z,230.12
2023-05-10T08:41:26.291Z,225.30
2023-05-10T08:42:26.229Z,224.56
2023-05-10T08:43:26.262Z,224.19
2023-05-10T08:44:26.319Z,223.30
2023-05-10T08:45:26.364Z,222.79
2023-05-10T08:46:26.273Z,222.74
2023-05-10T08:47:26.267Z,224.12
2023-05-10T08:48:26.233Z,224.85
2023-05-10T08:49:26.253Z,226.68
2023-05-10T08:50:26.595Z,229.14
2023-05-10T08:51:26.189Z,228.44
2023-05-10T08:52:26.214Z,228.05
2023-05-10T08:53:26.212Z,227.38
2023-05-10T08:54:26.317Z,221.56
2023-05-10T08:55:26.389Z,222.83
2023-05-10T08:56:26.386Z,224.40
2023-05-10T08:57:26.898Z,218.50
2023-05-10T08:58:26.912Z,215.70
2023-05-10T08:59:26.558Z,212.77
2023-05-10T09:00:26.641Z,210.69
2023-05-10T09:01:26.747Z,209.10
2023-05-10T09:02:26.749Z,209.19
2023-05-10T09:03:26.790Z,210.17
2023-05-10T09:04:26.985Z,208.50
2023-05-10T09:05:26.966Z,207.74
2023-05-10T09:06:26.886Z,206.68
2023-05-10T09:07:26.920Z,207.87
2023-05-10T09:08:26.928Z,207.51
2023-05-10T09:09:26.926Z,208.28
2023-05-10T09:10:26.959Z,206.77
2023-05-10T09:11:26.950Z,206.69
2023-05-10T09:12:26.960Z,206.72
2023-05-10T09:13:26.938Z,207.26
2023-05-10T09:14:26.970Z,207.93
2023-05-10T09:15:27.135Z,209.38
2023-05-10T09:16:27.017Z,208.97
2023-05-10T09:17:27.079Z,211.45
2023-05-10T09:18:28.195Z,214.62
2023-05-10T09:19:27.005Z,218.62
2023-05-10T09:20:27.017Z,213.05
2023-05-10T09:21:27.422Z,215.87
2023-05-10T09:22:27.128Z,215.97
2023-05-10T09:23:27.175Z,215.23
2023-05-10T09:24:27.283Z,215.43
2023-05-10T09:25:27.352Z,214.00
2023-05-10T09:26:27.399Z,215.93
2023-05-10T09:27:27.476Z,218.11
2023-05-10T09:28:27.921Z,217.04
2023-05-10T09:29:27.601Z,212.26
2023-05-10T09:30:27.672Z,213.50
2023-05-10T09:31:27.742Z,218.16
2023-05-10T09:32:27.792Z,221.24
2023-05-10T09:33:27.846Z,226.03
2023-05-10T09:34:27.869Z,229.25
2023-05-10T09:35:29.653Z,231.90
2023-05-10T09:36:28.205Z,232.55
2023-05-10T09:37:28.038Z,232.14
2023-05-10T09:38:28.467Z,230.61
2023-05-10T09:39:28.222Z,230.04
2023-05-10T09:40:28.348Z,230.82
2023-05-10T09:41:28.292Z,227.32
2023-05-10T09:42:28.330Z,228.81
2023-05-10T09:43:28.445Z,228.27
2023-05-10T09:44:28.450Z,228.61
2023-05-10T09:45:28.535Z,229.99
2023-05-10T09:46:28.571Z,231.11
2023-05-10T09:47:28.641Z,228.01
2023-05-10T09:48:28.647Z,227.12
2023-05-10T09:49:28.694Z,229.94
2023-05-10T09:50:28.754Z,231.00
2023-05-10T09:51:28.807Z,233.11
2023-05-10T09:52:28.920Z,228.50
2023-05-10T09:53:28.882Z,226.71
2023-05-10T09:54:28.999Z,231.65
2023-05-10T09:55:29.044Z,232.30
2023-05-10T09:56:29.013Z,231.94
2023-05-10T09:57:29.926Z,232.14
2023-05-10T09:58:30.980Z,230.39
2023-05-10T09:59:29.185Z,230.87
2023-05-10T10:00:29.205Z,230.87
2023-05-10T10:01:29.280Z,230.53
2023-05-10T10:02:29.401Z,230.00
2023-05-10T10:03:30.351Z,230.95
2023-05-10T10:04:29.581Z,226.94
2023-05-10T10:05:29.417Z,224.83
2023-05-10T10:06:30.640Z,225.79
2023-05-10T10:07:29.590Z,224.77
2023-05-10T10:08:29.640Z,221.46
2023-05-10T10:09:29.742Z,222.04
2023-05-10T10:10:29.760Z,218.54
2023-05-10T10:11:29.720Z,219.80
2023-05-10T10:12:29.777Z,217.97
2023-05-10T10:13:29.880Z,214.30
2023-05-10T10:14:29.915Z,214.36
2023-05-10T10:15:30.500Z,214.53
2023-05-10T10:16:30.107Z,211.63
2023-05-10T10:17:30.098Z,213.14
2023-05-10T10:18:30.623Z,211.82
2023-05-10T10:19:30.511Z,212.20
2023-05-10T10:20:30.204Z,212.81
2023-05-10T10:21:30.235Z,217.42
2023-05-10T10:22:30.443Z,217.54
2023-05-10T10:23:30.385Z,218.08
2023-05-10T10:24:30.470Z,219.08
2023-05-10T10:25:30.492Z,217.06
2023-05-10T10:26:30.999Z,215.30
2023-05-10T10:27:30.607Z,212.20
2023-05-10T10:28:30.625Z,216.04
2023-05-10T10:29:30.676Z,218.79
2023-05-10T10:30:30.705Z,219.07
2023-05-10T10:31:30.836Z,220.70
2023-05-10T10:32:30.882Z,217.11
2023-05-10T10:33:30.896Z,219.76
2023-05-10T10:34:30.904Z,218.11
2023-05-10T10:35:30.962Z,216.58
2023-05-10T10:36:31.026Z,211.50
2023-05-10T10:37:31.035Z,210.81
2023-05-10T10:38:31.152Z,214.14
2023-05-10T10:39:31.088Z,218.01
2023-05-10T10:40:33.527Z,208.79
2023-05-10T10:41:31.466Z,210.63
2023-05-10T10:42:31.475Z,210.75
2023-05-10T10:43:31.278Z,209.93
2023-05-10T10:44:31.619Z,216.74
2023-05-10T10:45:31.113Z,218.41
2023-05-10T10:46:31.226Z,221.68
2023-05-10T10:47:31.208Z,217.67
2023-05-10T10:48:31.151Z,214.43
2023-05-10T10:49:31.106Z,212.23
2023-05-10T10:50:31.050Z,207.77
2023-05-10T10:51:31.069Z,197.67
2023-05-10T10:52:31.116Z,191.56
2023-05-10T10:53:31.194Z,203.88
2023-05-10T10:54:31.042Z,197.85
2023-05-10T10:55:31.042Z,198.14
2023-05-10T10:56:31.045Z,196.46
2023-05-10T10:57:31.003Z,185.02
2023-05-10T10:58:31.219Z,187.23
2023-05-10T10:59:31.026Z,186.74
2023-05-10T11:00:31.029Z,189.93
2023-05-10T11:01:31.101Z,197.15
2023-05-10T11:02:31.421Z,200.00
2023-05-10T11:03:31.050Z,197.88
2023-05-10T11:04:31.025Z,201.91
2023-05-10T11:05:31.544Z,208.56
2023-05-10T11:06:30.949Z,217.29
2023-05-10T11:07:30.964Z,219.05
2023-05-10T11:08:31.508Z,218.56
2023-05-10T11:09:30.940Z,220.59
2023-05-10T11:10:30.999Z,223.47
2023-05-10T11:11:30.993Z,225.19
2023-05-10T11:12:30.972Z,229.04
2023-05-10T11:13:30.916Z,232.93
2023-05-10T11:14:30.915Z,233.17
2023-05-10T11:15:30.988Z,234.42
2023-05-10T11:16:30.995Z,236.01
2023-05-10T11:17:31.114Z,232.52
2023-05-10T11:18:30.922Z,227.57
2023-05-10T11:19:30.836Z,215.28
2023-05-10T11:20:30.858Z,217.47
2023-05-10T11:21:30.861Z,226.50
2023-05-10T11:22:30.818Z,232.17
2023-05-10T11:23:30.845Z,234.01
2023-05-10T11:24:30.774Z,236.34
2023-05-10T11:25:30.841Z,229.90
2023-05-10T11:26:30.790Z,224.62
2023-05-10T11:27:30.802Z,224.23
2023-05-10T11:28:30.808Z,230.97
2023-05-10T11:29:30.802Z,226.73
2023-05-10T11:30:30.918Z,230.75
2023-05-10T11:31:31.053Z,223.02
2023-05-10T11:32:30.936Z,222.10
2023-05-10T11:33:30.902Z,222.30
2023-05-10T11:34:31.021Z,215.66
2023-05-10T11:35:31.006Z,223.76
2023-05-10T11:36:31.015Z,223.45
2023-05-10T11:37:31.061Z,218.60
2023-05-10T11:38:31.138Z,224.89
2023-05-10T11:39:31.151Z,220.41
2023-05-10T11:40:31.148Z,214.08
2023-05-10T11:41:31.179Z,214.70
2023-05-10T11:42:31.236Z,208.88
2023-05-10T11:43:31.283Z,211.14
2023-05-10T11:44:31.340Z,199.89
2023-05-10T11:45:31.322Z,206.18
2023-05-10T11:46:31.391Z,212.31
2023-05-10T11:47:31.449Z,203.08
2023-05-10T11:48:31.449Z,211.61
2023-05-10T11:49:31.463Z,215.94
2023-05-10T11:50:31.490Z,209.74
2023-05-10T11:51:31.497Z,215.28
2023-05-10T11:52:31.498Z,212.45
2023-05-10T11:53:31.569Z,215.14
2023-05-10T11:54:31.612Z,214.03
2023-05-10T11:55:31.654Z,210.96
2023-05-10T11:56:31.691Z,205.37
2023-05-10T11:57:31.684Z,205.59
2023-05-10T11:58:31.779Z,209.02
2023-05-10T11:59:31.798Z,211.38
2023-05-10T12:00:31.853Z,213.56
2023-05-10T12:01:31.855Z,214.12
2023-05-10T12:02:31.978Z,224.47
2023-05-10T12:03:32.146Z,223.92
2023-05-10T12:04:32.069Z,220.56
2023-05-10T12:05:32.069Z,223.03
2023-05-10T12:06:32.249Z,221.58
2023-05-10T12:07:32.142Z,215.72
2023-05-10T12:08:32.227Z,208.47
2023-05-10T12:09:43.401Z,202.18
2023-05-10T12:10:33.211Z,202.39
2023-05-10T12:11:32.220Z,202.43
2023-05-10T12:12:32.247Z,202.71
2023-05-10T12:13:32.200Z,208.50
2023-05-10T12:14:32.177Z,211.99
2023-05-10T12:15:32.220Z,212.73
2023-05-10T12:16:32.248Z,216.36
2023-05-10T12:17:32.216Z,215.82
2023-05-10T12:18:32.166Z,217.19
2023-05-10T12:19:32.210Z,216.33
2023-05-10T12:20:32.176Z,209.23
2023-05-10T12:21:32.158Z,207.83
2023-05-10T12:22:32.198Z,212.17
2023-05-10T12:23:32.326Z,215.21
2023-05-10T12:24:32.319Z,217.10
2023-05-10T12:25:32.363Z,217.07
2023-05-10T12:26:32.395Z,215.20
2023-05-10T12:27:32.429Z,213.23
2023-05-10T12:28:32.462Z,210.80